sensor_id;sensor_type;location;lat;lon;timestamp;temperature;humidity
40868;DHT22;26586;50.708;22.412;2022-07-29T00:00:35;23.80;45.50
40868;DHT22;26586;50.708;22.412;2022-07-29T00:03:03;23.70;45.60
40868;DHT22;26586;50.708;22.412;2022-07-29T00:05:30;23.70;45.80
40868;DHT22;26586;50.708;22.412;2022-07-29T00:07:56;23.70;46.50
40868;DHT22;26586;50.708;22.412;2022-07-29T00:10:22;23.70;46.60
40868;DHT22;26586;50.708;22.412;2022-07-29T00:12:49;23.70;48.10
40868;DHT22;26586;50.708;22.412;2022-07-29T00:15:15;23.70;49.10
40868;DHT22;26586;50.708;22.412;2022-07-29T00:17:41;23.70;47.00
40868;DHT22;26586;50.708;22.412;2022-07-29T00:20:08;23.60;46.30
40868;DHT22;26586;50.708;22.412;2022-07-29T00:22:37;23.70;46.20
40868;DHT22;26586;50.708;22.412;2022-07-29T00:25:04;23.60;46.00
40868;DHT22;26586;50.708;22.412;2022-07-29T00:27:34;23.60;46.00
40868;DHT22;26586;50.708;22.412;2022-07-29T00:30:00;23.60;45.90
40868;DHT22;26586;50.708;22.412;2022-07-29T00:32:26;23.60;45.80
40868;DHT22;26586;50.708;22.412;2022-07-29T00:34:53;23.60;45.90
40868;DHT22;26586;50.708;22.412;2022-07-29T00:37:37;23.60;45.90
40868;DHT22;26586;50.708;22.412;2022-07-29T00:40:04;23.50;45.90
40868;DHT22;26586;50.708;22.412;2022-07-29T00:42:30;23.50;46.00
40868;DHT22;26586;50.708;22.412;2022-07-29T00:44:56;23.50;48.00
40868;DHT22;26586;50.708;22.412;2022-07-29T00:47:23;23.50;47.00
40868;DHT22;26586;50.708;22.412;2022-07-29T00:49:49;23.50;46.70
40868;DHT22;26586;50.708;22.412;2022-07-29T00:52:15;23.50;46.40
40868;DHT22;26586;50.708;22.412;2022-07-29T00:54:41;23.40;46.40
40868;DHT22;26586;50.708;22.412;2022-07-29T00:57:07;23.40;46.50
40868;DHT22;26586;50.708;22.412;2022-07-29T00:59:34;23.40;46.80
40868;DHT22;26586;50.708;22.412;2022-07-29T01:02:02;23.40;46.70
40868;DHT22;26586;50.708;22.412;2022-07-29T01:04:28;23.40;47.20
40868;DHT22;26586;50.708;22.412;2022-07-29T01:06:55;23.40;46.60
40868;DHT22;26586;50.708;22.412;2022-07-29T01:09:22;23.40;46.40
40868;DHT22;26586;50.708;22.412;2022-07-29T01:11:49;23.40;46.40
40868;DHT22;26586;50.708;22.412;2022-07-29T01:14:15;23.40;48.20
40868;DHT22;26586;50.708;22.412;2022-07-29T01:16:50;23.30;47.30
40868;DHT22;26586;50.708;22.412;2022-07-29T01:21:58;23.30;47.50
40868;DHT22;26586;50.708;22.412;2022-07-29T01:29:58;23.30;46.80
40868;DHT22;26586;50.708;22.412;2022-07-29T01:32:28;23.20;47.00
40868;DHT22;26586;50.708;22.412;2022-07-29T01:37:44;23.20;46.50
40868;DHT22;26586;50.708;22.412;2022-07-29T01:40:23;23.20;46.70
40868;DHT22;26586;50.708;22.412;2022-07-29T01:42:54;23.20;46.80
40868;DHT22;26586;50.708;22.412;2022-07-29T01:45:49;23.20;46.70
40868;DHT22;26586;50.708;22.412;2022-07-29T01:48:23;23.10;47.20
40868;DHT22;26586;50.708;22.412;2022-07-29T01:50:53;23.10;47.80
40868;DHT22;26586;50.708;22.412;2022-07-29T01:56:32;23.10;48.60
40868;DHT22;26586;50.708;22.412;2022-07-29T01:59:01;23.10;48.80
40868;DHT22;26586;50.708;22.412;2022-07-29T02:01:30;23.10;49.70
40868;DHT22;26586;50.708;22.412;2022-07-29T02:03:57;23.10;50.30
40868;DHT22;26586;50.708;22.412;2022-07-29T02:06:27;23.10;50.00
40868;DHT22;26586;50.708;22.412;2022-07-29T02:08:56;23.10;51.40
40868;DHT22;26586;50.708;22.412;2022-07-29T02:11:24;23.10;50.70
40868;DHT22;26586;50.708;22.412;2022-07-29T02:13:52;23.10;50.90
40868;DHT22;26586;50.708;22.412;2022-07-29T02:16:22;23.10;50.20
40868;DHT22;26586;50.708;22.412;2022-07-29T02:18:50;23.10;49.20
40868;DHT22;26586;50.708;22.412;2022-07-29T02:21:22;23.10;48.50
40868;DHT22;26586;50.708;22.412;2022-07-29T02:23:51;23.10;48.80
40868;DHT22;26586;50.708;22.412;2022-07-29T02:26:23;23.10;50.10
40868;DHT22;26586;50.708;22.412;2022-07-29T02:28:52;23.10;49.40
40868;DHT22;26586;50.708;22.412;2022-07-29T02:31:22;23.10;48.90
40868;DHT22;26586;50.708;22.412;2022-07-29T02:33:49;23.10;48.60
40868;DHT22;26586;50.708;22.412;2022-07-29T02:36:16;23.10;48.30
40868;DHT22;26586;50.708;22.412;2022-07-29T02:38:43;23.10;47.90
40868;DHT22;26586;50.708;22.412;2022-07-29T02:41:28;23.10;47.90
40868;DHT22;26586;50.708;22.412;2022-07-29T02:43:58;23.00;48.30
40868;DHT22;26586;50.708;22.412;2022-07-29T02:46:37;23.00;47.70
40868;DHT22;26586;50.708;22.412;2022-07-29T02:49:13;23.00;47.60
40868;DHT22;26586;50.708;22.412;2022-07-29T02:51:43;23.00;49.30
40868;DHT22;26586;50.708;22.412;2022-07-29T02:54:18;23.00;49.70
40868;DHT22;26586;50.708;22.412;2022-07-29T02:56:46;23.00;48.70
40868;DHT22;26586;50.708;22.412;2022-07-29T02:59:14;23.00;47.80
40868;DHT22;26586;50.708;22.412;2022-07-29T03:01:44;23.00;47.70
40868;DHT22;26586;50.708;22.412;2022-07-29T03:04:12;23.00;47.60
40868;DHT22;26586;50.708;22.412;2022-07-29T03:06:40;23.00;47.60
40868;DHT22;26586;50.708;22.412;2022-07-29T03:09:08;23.00;47.60
40868;DHT22;26586;50.708;22.412;2022-07-29T03:11:36;22.90;47.70
40868;DHT22;26586;50.708;22.412;2022-07-29T03:14:03;22.90;50.20
40868;DHT22;26586;50.708;22.412;2022-07-29T03:16:30;23.00;51.20
40868;DHT22;26586;50.708;22.412;2022-07-29T03:18:57;23.00;51.90
40868;DHT22;26586;50.708;22.412;2022-07-29T03:21:23;22.90;50.80
40868;DHT22;26586;50.708;22.412;2022-07-29T03:23:49;23.00;50.40
40868;DHT22;26586;50.708;22.412;2022-07-29T03:26:16;22.90;50.00
40868;DHT22;26586;50.708;22.412;2022-07-29T03:28:42;22.90;49.90
40868;DHT22;26586;50.708;22.412;2022-07-29T03:31:08;23.00;48.70
40868;DHT22;26586;50.708;22.412;2022-07-29T03:33:34;22.90;48.40
40868;DHT22;26586;50.708;22.412;2022-07-29T03:36:00;22.90;48.20
40868;DHT22;26586;50.708;22.412;2022-07-29T03:38:30;22.90;48.10
40868;DHT22;26586;50.708;22.412;2022-07-29T03:41:09;22.90;48.40
40868;DHT22;26586;50.708;22.412;2022-07-29T03:43:38;22.90;50.30
40868;DHT22;26586;50.708;22.412;2022-07-29T03:46:07;22.90;55.00
40868;DHT22;26586;50.708;22.412;2022-07-29T03:48:37;22.90;52.70
40868;DHT22;26586;50.708;22.412;2022-07-29T03:51:06;22.90;53.20
40868;DHT22;26586;50.708;22.412;2022-07-29T03:53:32;22.90;52.80
40868;DHT22;26586;50.708;22.412;2022-07-29T03:56:02;22.90;52.90
40868;DHT22;26586;50.708;22.412;2022-07-29T03:58:30;22.90;52.30
40868;DHT22;26586;50.708;22.412;2022-07-29T04:00:57;22.90;52.10
40868;DHT22;26586;50.708;22.412;2022-07-29T04:03:24;22.90;51.30
40868;DHT22;26586;50.708;22.412;2022-07-29T04:06:02;22.90;50.50
40868;DHT22;26586;50.708;22.412;2022-07-29T04:08:28;22.90;51.30
40868;DHT22;26586;50.708;22.412;2022-07-29T04:10:55;22.90;52.00
40868;DHT22;26586;50.708;22.412;2022-07-29T04:13:21;22.90;52.00
40868;DHT22;26586;50.708;22.412;2022-07-29T04:15:47;22.90;52.30
40868;DHT22;26586;50.708;22.412;2022-07-29T04:18:14;22.90;52.00
40868;DHT22;26586;50.708;22.412;2022-07-29T04:20:40;22.90;51.80
40868;DHT22;26586;50.708;22.412;2022-07-29T04:23:06;22.90;52.00
40868;DHT22;26586;50.708;22.412;2022-07-29T04:25:32;22.90;52.00
40868;DHT22;26586;50.708;22.412;2022-07-29T04:27:58;22.90;52.00
40868;DHT22;26586;50.708;22.412;2022-07-29T04:30:28;22.90;52.60
40868;DHT22;26586;50.708;22.412;2022-07-29T04:32:54;22.90;52.90
40868;DHT22;26586;50.708;22.412;2022-07-29T04:35:20;22.90;53.20
40868;DHT22;26586;50.708;22.412;2022-07-29T04:37:46;22.90;53.70
40868;DHT22;26586;50.708;22.412;2022-07-29T04:40:13;22.90;53.50
40868;DHT22;26586;50.708;22.412;2022-07-29T04:42:39;22.90;53.50
40868;DHT22;26586;50.708;22.412;2022-07-29T04:45:06;22.90;53.50
40868;DHT22;26586;50.708;22.412;2022-07-29T04:47:32;22.90;53.00
40868;DHT22;26586;50.708;22.412;2022-07-29T04:49:58;23.00;52.70
40868;DHT22;26586;50.708;22.412;2022-07-29T04:52:24;23.00;52.20
40868;DHT22;26586;50.708;22.412;2022-07-29T04:54:51;23.00;52.00
40868;DHT22;26586;50.708;22.412;2022-07-29T04:57:17;23.00;51.10
40868;DHT22;26586;50.708;22.412;2022-07-29T04:59:43;23.00;50.80
40868;DHT22;26586;50.708;22.412;2022-07-29T05:02:09;23.00;51.10
40868;DHT22;26586;50.708;22.412;2022-07-29T05:04:35;23.00;52.00
40868;DHT22;26586;50.708;22.412;2022-07-29T05:07:02;23.00;52.80
40868;DHT22;26586;50.708;22.412;2022-07-29T05:09:28;23.10;51.10
40868;DHT22;26586;50.708;22.412;2022-07-29T05:11:54;23.10;51.60
40868;DHT22;26586;50.708;22.412;2022-07-29T05:14:20;23.10;52.30
40868;DHT22;26586;50.708;22.412;2022-07-29T05:16:46;23.20;50.60
40868;DHT22;26586;50.708;22.412;2022-07-29T05:19:13;23.20;51.10
40868;DHT22;26586;50.708;22.412;2022-07-29T05:21:39;23.20;50.40
40868;DHT22;26586;50.708;22.412;2022-07-29T05:24:05;23.30;49.80
40868;DHT22;26586;50.708;22.412;2022-07-29T05:26:31;23.30;50.80
40868;DHT22;26586;50.708;22.412;2022-07-29T05:28:57;23.30;50.00
40868;DHT22;26586;50.708;22.412;2022-07-29T05:31:24;23.40;49.80
40868;DHT22;26586;50.708;22.412;2022-07-29T05:33:50;23.40;49.20
40868;DHT22;26586;50.708;22.412;2022-07-29T05:36:16;23.50;49.50
40868;DHT22;26586;50.708;22.412;2022-07-29T05:38:42;23.50;49.00
40868;DHT22;26586;50.708;22.412;2022-07-29T05:41:08;23.50;48.80
40868;DHT22;26586;50.708;22.412;2022-07-29T05:43:34;23.60;49.20
40868;DHT22;26586;50.708;22.412;2022-07-29T05:46:01;23.60;49.00
40868;DHT22;26586;50.708;22.412;2022-07-29T05:48:27;23.70;49.20
40868;DHT22;26586;50.708;22.412;2022-07-29T05:50:53;23.70;48.90
40868;DHT22;26586;50.708;22.412;2022-07-29T05:53:20;23.80;49.00
40868;DHT22;26586;50.708;22.412;2022-07-29T05:55:47;23.80;48.10
40868;DHT22;26586;50.708;22.412;2022-07-29T05:58:13;23.90;48.50
40868;DHT22;26586;50.708;22.412;2022-07-29T06:00:39;23.80;48.50
40868;DHT22;26586;50.708;22.412;2022-07-29T06:03:05;24.00;48.00
40868;DHT22;26586;50.708;22.412;2022-07-29T06:05:31;24.00;48.00
40868;DHT22;26586;50.708;22.412;2022-07-29T06:07:58;24.10;47.90
40868;DHT22;26586;50.708;22.412;2022-07-29T06:10:24;24.20;47.50
40868;DHT22;26586;50.708;22.412;2022-07-29T06:12:50;24.20;47.40
40868;DHT22;26586;50.708;22.412;2022-07-29T06:15:16;24.20;47.20
40868;DHT22;26586;50.708;22.412;2022-07-29T06:17:43;24.30;47.40
40868;DHT22;26586;50.708;22.412;2022-07-29T06:20:10;24.30;47.10
40868;DHT22;26586;50.708;22.412;2022-07-29T06:22:37;24.40;47.20
40868;DHT22;26586;50.708;22.412;2022-07-29T06:25:03;24.40;47.10
40868;DHT22;26586;50.708;22.412;2022-07-29T06:27:29;24.50;47.30
40868;DHT22;26586;50.708;22.412;2022-07-29T06:29:56;24.50;47.20
40868;DHT22;26586;50.708;22.412;2022-07-29T06:32:22;24.50;46.60
40868;DHT22;26586;50.708;22.412;2022-07-29T06:34:48;24.60;46.50
40868;DHT22;26586;50.708;22.412;2022-07-29T06:37:15;24.60;46.30
40868;DHT22;26586;50.708;22.412;2022-07-29T06:39:41;24.60;46.10
40868;DHT22;26586;50.708;22.412;2022-07-29T06:42:07;24.70;45.80
40868;DHT22;26586;50.708;22.412;2022-07-29T06:44:33;24.70;46.10
40868;DHT22;26586;50.708;22.412;2022-07-29T06:47:00;24.70;45.90
40868;DHT22;26586;50.708;22.412;2022-07-29T06:49:26;24.80;46.20
40868;DHT22;26586;50.708;22.412;2022-07-29T06:51:54;24.80;46.20
40868;DHT22;26586;50.708;22.412;2022-07-29T06:54:20;24.90;46.20
40868;DHT22;26586;50.708;22.412;2022-07-29T06:56:47;25.00;45.40
40868;DHT22;26586;50.708;22.412;2022-07-29T06:59:14;25.00;46.00
40868;DHT22;26586;50.708;22.412;2022-07-29T07:01:42;25.10;45.80
40868;DHT22;26586;50.708;22.412;2022-07-29T07:04:09;25.20;45.70
40868;DHT22;26586;50.708;22.412;2022-07-29T07:06:36;25.10;46.10
40868;DHT22;26586;50.708;22.412;2022-07-29T07:09:02;25.20;46.80
40868;DHT22;26586;50.708;22.412;2022-07-29T07:11:28;25.30;46.70
40868;DHT22;26586;50.708;22.412;2022-07-29T07:13:55;25.30;46.20
40868;DHT22;26586;50.708;22.412;2022-07-29T07:16:21;25.40;45.50
40868;DHT22;26586;50.708;22.412;2022-07-29T07:18:47;25.40;45.20
40868;DHT22;26586;50.708;22.412;2022-07-29T07:21:13;25.50;45.70
40868;DHT22;26586;50.708;22.412;2022-07-29T07:23:39;25.50;46.00
40868;DHT22;26586;50.708;22.412;2022-07-29T07:26:05;25.50;45.80
40868;DHT22;26586;50.708;22.412;2022-07-29T07:28:32;25.60;46.00
40868;DHT22;26586;50.708;22.412;2022-07-29T07:30:58;25.60;46.20
40868;DHT22;26586;50.708;22.412;2022-07-29T07:33:24;25.70;45.10
40868;DHT22;26586;50.708;22.412;2022-07-29T07:35:53;25.70;45.60
40868;DHT22;26586;50.708;22.412;2022-07-29T07:38:20;25.70;46.10
40868;DHT22;26586;50.708;22.412;2022-07-29T07:40:50;25.80;45.20
40868;DHT22;26586;50.708;22.412;2022-07-29T07:43:16;25.90;45.00
40868;DHT22;26586;50.708;22.412;2022-07-29T07:45:42;25.90;43.90
40868;DHT22;26586;50.708;22.412;2022-07-29T07:48:08;26.00;43.30
40868;DHT22;26586;50.708;22.412;2022-07-29T07:50:36;26.00;45.10
40868;DHT22;26586;50.708;22.412;2022-07-29T07:53:02;26.00;45.20
40868;DHT22;26586;50.708;22.412;2022-07-29T07:55:29;26.10;45.50
40868;DHT22;26586;50.708;22.412;2022-07-29T07:57:55;26.10;43.90
40868;DHT22;26586;50.708;22.412;2022-07-29T08:00:24;26.20;44.40
40868;DHT22;26586;50.708;22.412;2022-07-29T08:02:50;26.30;44.30
40868;DHT22;26586;50.708;22.412;2022-07-29T08:05:17;26.30;43.90
40868;DHT22;26586;50.708;22.412;2022-07-29T08:07:46;26.30;43.00
40868;DHT22;26586;50.708;22.412;2022-07-29T08:10:14;26.30;44.10
40868;DHT22;26586;50.708;22.412;2022-07-29T08:12:40;26.40;44.50
40868;DHT22;26586;50.708;22.412;2022-07-29T08:15:07;26.40;44.20
40868;DHT22;26586;50.708;22.412;2022-07-29T08:17:33;26.40;43.40
40868;DHT22;26586;50.708;22.412;2022-07-29T08:20:00;26.50;44.80
40868;DHT22;26586;50.708;22.412;2022-07-29T08:22:26;26.50;43.40
40868;DHT22;26586;50.708;22.412;2022-07-29T08:24:52;26.60;42.80
40868;DHT22;26586;50.708;22.412;2022-07-29T08:27:19;26.60;43.10
40868;DHT22;26586;50.708;22.412;2022-07-29T08:29:46;26.60;43.70
40868;DHT22;26586;50.708;22.412;2022-07-29T08:32:12;26.70;44.30
40868;DHT22;26586;50.708;22.412;2022-07-29T08:34:38;26.70;43.80
40868;DHT22;26586;50.708;22.412;2022-07-29T08:37:05;26.80;43.70
40868;DHT22;26586;50.708;22.412;2022-07-29T08:39:31;26.80;45.00
40868;DHT22;26586;50.708;22.412;2022-07-29T08:41:57;26.90;45.70
40868;DHT22;26586;50.708;22.412;2022-07-29T08:44:23;26.90;43.60
40868;DHT22;26586;50.708;22.412;2022-07-29T08:46:50;27.00;43.90
40868;DHT22;26586;50.708;22.412;2022-07-29T08:49:17;27.00;45.20
40868;DHT22;26586;50.708;22.412;2022-07-29T08:51:44;27.10;44.40
40868;DHT22;26586;50.708;22.412;2022-07-29T08:54:10;27.10;44.10
40868;DHT22;26586;50.708;22.412;2022-07-29T08:56:38;27.10;44.80
40868;DHT22;26586;50.708;22.412;2022-07-29T08:59:05;27.20;43.60
40868;DHT22;26586;50.708;22.412;2022-07-29T09:01:34;27.20;44.30
40868;DHT22;26586;50.708;22.412;2022-07-29T09:04:05;27.30;45.10
40868;DHT22;26586;50.708;22.412;2022-07-29T09:06:37;27.30;44.90
40868;DHT22;26586;50.708;22.412;2022-07-29T09:09:05;27.40;44.10
40868;DHT22;26586;50.708;22.412;2022-07-29T09:11:33;27.40;44.20
40868;DHT22;26586;50.708;22.412;2022-07-29T09:13:59;27.40;44.20
40868;DHT22;26586;50.708;22.412;2022-07-29T09:16:26;27.40;45.00
40868;DHT22;26586;50.708;22.412;2022-07-29T09:18:55;27.50;44.70
40868;DHT22;26586;50.708;22.412;2022-07-29T09:21:21;27.50;45.00
40868;DHT22;26586;50.708;22.412;2022-07-29T09:26:39;27.60;45.00
40868;DHT22;26586;50.708;22.412;2022-07-29T09:29:11;27.70;43.70
40868;DHT22;26586;50.708;22.412;2022-07-29T09:31:40;27.70;44.50
40868;DHT22;26586;50.708;22.412;2022-07-29T09:34:08;27.70;44.70
40868;DHT22;26586;50.708;22.412;2022-07-29T09:36:45;27.80;44.30
40868;DHT22;26586;50.708;22.412;2022-07-29T09:39:13;27.80;44.30
40868;DHT22;26586;50.708;22.412;2022-07-29T09:41:50;27.90;45.00
40868;DHT22;26586;50.708;22.412;2022-07-29T09:44:21;27.90;44.90
40868;DHT22;26586;50.708;22.412;2022-07-29T09:47:04;27.90;44.50
40868;DHT22;26586;50.708;22.412;2022-07-29T09:49:34;28.00;45.00
40868;DHT22;26586;50.708;22.412;2022-07-29T09:52:05;28.00;45.00
40868;DHT22;26586;50.708;22.412;2022-07-29T09:54:32;28.10;44.60
40868;DHT22;26586;50.708;22.412;2022-07-29T09:57:06;28.10;45.30
40868;DHT22;26586;50.708;22.412;2022-07-29T09:59:33;28.10;45.40
40868;DHT22;26586;50.708;22.412;2022-07-29T10:01:59;28.10;45.90
40868;DHT22;26586;50.708;22.412;2022-07-29T10:04:40;28.10;46.10
40868;DHT22;26586;50.708;22.412;2022-07-29T10:07:06;28.10;45.90
40868;DHT22;26586;50.708;22.412;2022-07-29T10:09:33;28.20;45.60
40868;DHT22;26586;50.708;22.412;2022-07-29T10:14:30;28.20;46.60
40868;DHT22;26586;50.708;22.412;2022-07-29T10:16:58;28.30;46.40
40868;DHT22;26586;50.708;22.412;2022-07-29T10:19:26;28.30;46.20
40868;DHT22;26586;50.708;22.412;2022-07-29T10:21:54;28.40;44.20
40868;DHT22;26586;50.708;22.412;2022-07-29T10:24:21;28.40;45.50
40868;DHT22;26586;50.708;22.412;2022-07-29T10:26:47;28.40;46.40
40868;DHT22;26586;50.708;22.412;2022-07-29T10:29:15;28.40;46.70
40868;DHT22;26586;50.708;22.412;2022-07-29T10:31:53;28.40;46.30
40868;DHT22;26586;50.708;22.412;2022-07-29T10:37:23;28.50;45.70
40868;DHT22;26586;50.708;22.412;2022-07-29T10:40:06;28.50;46.30
40868;DHT22;26586;50.708;22.412;2022-07-29T10:42:56;28.50;45.70
40868;DHT22;26586;50.708;22.412;2022-07-29T10:45:25;28.50;46.40
40868;DHT22;26586;50.708;22.412;2022-07-29T10:48:03;28.60;45.50
40868;DHT22;26586;50.708;22.412;2022-07-29T10:50:57;28.60;45.90
40868;DHT22;26586;50.708;22.412;2022-07-29T10:53:52;28.60;46.70
40868;DHT22;26586;50.708;22.412;2022-07-29T10:56:25;28.60;46.10
40868;DHT22;26586;50.708;22.412;2022-07-29T10:59:30;28.60;45.90
40868;DHT22;26586;50.708;22.412;2022-07-29T11:01:57;28.60;47.00
40868;DHT22;26586;50.708;22.412;2022-07-29T11:07:11;28.70;47.00
40868;DHT22;26586;50.708;22.412;2022-07-29T11:09:38;28.70;47.20
40868;DHT22;26586;50.708;22.412;2022-07-29T11:15:15;28.80;46.80
40868;DHT22;26586;50.708;22.412;2022-07-29T11:26:12;28.80;46.50
40868;DHT22;26586;50.708;22.412;2022-07-29T11:28:34;28.80;46.00
40868;DHT22;26586;50.708;22.412;2022-07-29T11:31:01;28.80;45.40
40868;DHT22;26586;50.708;22.412;2022-07-29T11:33:32;28.80;44.70
40868;DHT22;26586;50.708;22.412;2022-07-29T11:36:12;28.80;43.30
40868;DHT22;26586;50.708;22.412;2022-07-29T11:38:39;28.80;45.40
40868;DHT22;26586;50.708;22.412;2022-07-29T11:41:26;28.80;46.30
40868;DHT22;26586;50.708;22.412;2022-07-29T11:43:58;28.80;46.60
40868;DHT22;26586;50.708;22.412;2022-07-29T11:49:09;28.90;45.20
40868;DHT22;26586;50.708;22.412;2022-07-29T11:51:38;28.80;45.20
40868;DHT22;26586;50.708;22.412;2022-07-29T11:54:05;28.90;45.60
40868;DHT22;26586;50.708;22.412;2022-07-29T11:56:34;28.90;45.30
40868;DHT22;26586;50.708;22.412;2022-07-29T11:59:05;28.80;44.60
40868;DHT22;26586;50.708;22.412;2022-07-29T12:01:32;28.90;45.20
40868;DHT22;26586;50.708;22.412;2022-07-29T12:04:05;28.80;45.70
40868;DHT22;26586;50.708;22.412;2022-07-29T12:06:35;28.90;46.10
40868;DHT22;26586;50.708;22.412;2022-07-29T12:09:09;28.90;46.20
40868;DHT22;26586;50.708;22.412;2022-07-29T12:11:35;28.90;45.90
40868;DHT22;26586;50.708;22.412;2022-07-29T12:14:02;28.90;45.50
40868;DHT22;26586;50.708;22.412;2022-07-29T12:16:35;28.90;45.60
40868;DHT22;26586;50.708;22.412;2022-07-29T12:19:02;28.90;45.40
40868;DHT22;26586;50.708;22.412;2022-07-29T12:21:49;28.90;44.40
40868;DHT22;26586;50.708;22.412;2022-07-29T12:24:15;28.90;45.00
40868;DHT22;26586;50.708;22.412;2022-07-29T12:26:53;28.90;45.40
40868;DHT22;26586;50.708;22.412;2022-07-29T12:29:21;28.90;44.30
40868;DHT22;26586;50.708;22.412;2022-07-29T12:31:52;28.90;45.20
40868;DHT22;26586;50.708;22.412;2022-07-29T12:34:23;28.90;45.90
40868;DHT22;26586;50.708;22.412;2022-07-29T12:36:49;28.90;43.80
40868;DHT22;26586;50.708;22.412;2022-07-29T12:39:16;28.90;44.70
40868;DHT22;26586;50.708;22.412;2022-07-29T12:41:43;28.90;45.10
40868;DHT22;26586;50.708;22.412;2022-07-29T12:44:10;28.90;45.10
40868;DHT22;26586;50.708;22.412;2022-07-29T12:46:37;28.90;44.60
40868;DHT22;26586;50.708;22.412;2022-07-29T12:49:03;28.90;44.40
40868;DHT22;26586;50.708;22.412;2022-07-29T12:51:34;28.90;44.40
40868;DHT22;26586;50.708;22.412;2022-07-29T12:56:34;29.00;43.50
40868;DHT22;26586;50.708;22.412;2022-07-29T12:59:21;29.00;44.00
40868;DHT22;26586;50.708;22.412;2022-07-29T13:01:50;29.00;43.00
40868;DHT22;26586;50.708;22.412;2022-07-29T13:04:33;29.00;43.30
40868;DHT22;26586;50.708;22.412;2022-07-29T13:07:03;29.00;43.70
40868;DHT22;26586;50.708;22.412;2022-07-29T13:09:44;29.00;43.50
40868;DHT22;26586;50.708;22.412;2022-07-29T13:12:14;29.00;44.10
40868;DHT22;26586;50.708;22.412;2022-07-29T13:14:42;29.00;43.20
40868;DHT22;26586;50.708;22.412;2022-07-29T13:17:20;29.00;41.90
40868;DHT22;26586;50.708;22.412;2022-07-29T13:20:04;29.00;43.00
40868;DHT22;26586;50.708;22.412;2022-07-29T13:22:31;29.00;43.20
40868;DHT22;26586;50.708;22.412;2022-07-29T13:24:59;29.00;43.10
40868;DHT22;26586;50.708;22.412;2022-07-29T13:27:32;29.00;43.60
40868;DHT22;26586;50.708;22.412;2022-07-29T13:29:59;29.00;43.50
40868;DHT22;26586;50.708;22.412;2022-07-29T13:32:27;28.90;43.80
40868;DHT22;26586;50.708;22.412;2022-07-29T13:34:55;28.90;43.40
40868;DHT22;26586;50.708;22.412;2022-07-29T13:37:22;28.90;43.90
40868;DHT22;26586;50.708;22.412;2022-07-29T13:39:48;28.90;44.40
40868;DHT22;26586;50.708;22.412;2022-07-29T13:42:14;28.90;44.30
40868;DHT22;26586;50.708;22.412;2022-07-29T13:44:41;28.90;44.80
40868;DHT22;26586;50.708;22.412;2022-07-29T13:47:07;28.90;44.60
40868;DHT22;26586;50.708;22.412;2022-07-29T13:49:34;28.90;44.10
40868;DHT22;26586;50.708;22.412;2022-07-29T13:52:01;28.90;42.60
40868;DHT22;26586;50.708;22.412;2022-07-29T13:54:27;28.90;43.60
40868;DHT22;26586;50.708;22.412;2022-07-29T13:56:53;28.90;43.90
40868;DHT22;26586;50.708;22.412;2022-07-29T13:59:21;28.90;44.60
40868;DHT22;26586;50.708;22.412;2022-07-29T14:01:47;28.90;44.60
40868;DHT22;26586;50.708;22.412;2022-07-29T14:04:13;28.90;44.50
40868;DHT22;26586;50.708;22.412;2022-07-29T14:06:39;28.90;44.30
40868;DHT22;26586;50.708;22.412;2022-07-29T14:09:06;28.90;43.80
40868;DHT22;26586;50.708;22.412;2022-07-29T14:11:34;28.80;44.50
40868;DHT22;26586;50.708;22.412;2022-07-29T14:14:01;28.80;45.10
40868;DHT22;26586;50.708;22.412;2022-07-29T14:16:27;28.80;45.00
40868;DHT22;26586;50.708;22.412;2022-07-29T14:18:53;28.90;45.10
40868;DHT22;26586;50.708;22.412;2022-07-29T14:21:20;28.80;45.40
40868;DHT22;26586;50.708;22.412;2022-07-29T14:23:46;28.80;44.80
40868;DHT22;26586;50.708;22.412;2022-07-29T14:26:13;28.80;44.80
40868;DHT22;26586;50.708;22.412;2022-07-29T14:28:39;28.80;44.50
40868;DHT22;26586;50.708;22.412;2022-07-29T14:31:05;28.80;44.70
40868;DHT22;26586;50.708;22.412;2022-07-29T14:33:32;28.80;44.70
40868;DHT22;26586;50.708;22.412;2022-07-29T14:35:58;28.80;44.90
40868;DHT22;26586;50.708;22.412;2022-07-29T14:38:24;28.80;44.40
40868;DHT22;26586;50.708;22.412;2022-07-29T14:40:50;28.80;44.80
40868;DHT22;26586;50.708;22.412;2022-07-29T14:43:17;28.70;44.40
40868;DHT22;26586;50.708;22.412;2022-07-29T14:45:43;28.80;44.70
40868;DHT22;26586;50.708;22.412;2022-07-29T14:48:09;28.80;44.70
40868;DHT22;26586;50.708;22.412;2022-07-29T14:50:37;28.70;44.60
40868;DHT22;26586;50.708;22.412;2022-07-29T14:53:03;28.70;44.60
40868;DHT22;26586;50.708;22.412;2022-07-29T14:55:30;28.70;44.60
40868;DHT22;26586;50.708;22.412;2022-07-29T14:57:56;28.70;44.70
40868;DHT22;26586;50.708;22.412;2022-07-29T15:00:22;28.70;45.10
40868;DHT22;26586;50.708;22.412;2022-07-29T15:02:49;28.60;45.20
40868;DHT22;26586;50.708;22.412;2022-07-29T15:05:16;28.70;45.30
40868;DHT22;26586;50.708;22.412;2022-07-29T15:07:42;28.70;45.10
40868;DHT22;26586;50.708;22.412;2022-07-29T15:10:11;28.60;45.20
40868;DHT22;26586;50.708;22.412;2022-07-29T15:12:38;28.60;44.80
40868;DHT22;26586;50.708;22.412;2022-07-29T15:15:04;28.60;44.80
40868;DHT22;26586;50.708;22.412;2022-07-29T15:17:30;28.60;44.80
40868;DHT22;26586;50.708;22.412;2022-07-29T15:19:56;28.60;44.80
40868;DHT22;26586;50.708;22.412;2022-07-29T15:22:22;28.60;45.50
40868;DHT22;26586;50.708;22.412;2022-07-29T15:24:48;28.60;45.40
40868;DHT22;26586;50.708;22.412;2022-07-29T15:27:15;28.50;45.10
40868;DHT22;26586;50.708;22.412;2022-07-29T15:29:41;28.60;45.00
40868;DHT22;26586;50.708;22.412;2022-07-29T15:32:08;28.50;44.80
40868;DHT22;26586;50.708;22.412;2022-07-29T15:34:34;28.60;44.80
40868;DHT22;26586;50.708;22.412;2022-07-29T15:37:01;28.50;45.10
40868;DHT22;26586;50.708;22.412;2022-07-29T15:39:27;28.50;44.50
40868;DHT22;26586;50.708;22.412;2022-07-29T15:41:53;28.50;44.50
40868;DHT22;26586;50.708;22.412;2022-07-29T15:44:20;28.50;44.00
40868;DHT22;26586;50.708;22.412;2022-07-29T15:46:46;28.50;44.10
40868;DHT22;26586;50.708;22.412;2022-07-29T15:49:37;28.50;44.40
40868;DHT22;26586;50.708;22.412;2022-07-29T15:52:05;28.50;44.50
40868;DHT22;26586;50.708;22.412;2022-07-29T15:54:33;28.50;44.60
40868;DHT22;26586;50.708;22.412;2022-07-29T15:57:00;28.40;44.60
40868;DHT22;26586;50.708;22.412;2022-07-29T15:59:26;28.40;44.70
40868;DHT22;26586;50.708;22.412;2022-07-29T16:01:52;28.40;45.20
40868;DHT22;26586;50.708;22.412;2022-07-29T16:04:19;28.40;45.30